sensor_id;sensor_type;location;lat;lon;timestamp;P1;durP1;ratioP1;P2;durP2;ratioP2
11709;SDS011;5911;51.036;6.972;2023-05-07T00:01:55;6.13;;;3.40;;
11709;SDS011;5911;51.036;6.972;2023-05-07T00:04:23;4.30;;;3.08;;
11709;SDS011;5911;51.036;6.972;2023-05-07T00:06:51;7.88;;;3.72;;
11709;SDS011;5911;51.036;6.972;2023-05-07T00:09:19;9.25;;;3.53;;
11709;SDS011;5911;51.036;6.972;2023-05-07T00:11:48;4.53;;;3.50;;
11709;SDS011;5911;51.036;6.972;2023-05-07T00:14:16;3.28;;;2.97;;
11709;SDS011;5911;51.036;6.972;2023-05-07T00:16:44;7.20;;;3.05;;
11709;SDS011;5911;51.036;6.972;2023-05-07T00:19:12;7.50;;;3.28;;
11709;SDS011;5911;51.036;6.972;2023-05-07T00:21:39;6.28;;;2.80;;
11709;SDS011;5911;51.036;6.972;2023-05-07T00:24:07;5.38;;;2.95;;
11709;SDS011;5911;51.036;6.972;2023-05-07T00:26:35;9.55;;;2.92;;
11709;SDS011;5911;51.036;6.972;2023-05-07T00:29:04;9.27;;;3.22;;
11709;SDS011;5911;51.036;6.972;2023-05-07T00:31:32;7.97;;;3.10;;
11709;SDS011;5911;51.036;6.972;2023-05-07T00:36:53;9.32;;;3.15;;
11709;SDS011;5911;51.036;6.972;2023-05-07T00:39:21;8.45;;;3.58;;
11709;SDS011;5911;51.036;6.972;2023-05-07T00:41:48;5.35;;;3.38;;
11709;SDS011;5911;51.036;6.972;2023-05-07T00:44:19;7.97;;;3.25;;
11709;SDS011;5911;51.036;6.972;2023-05-07T00:46:46;7.50;;;3.08;;
11709;SDS011;5911;51.036;6.972;2023-05-07T00:49:16;5.55;;;3.20;;
11709;SDS011;5911;51.036;6.972;2023-05-07T00:51:44;6.15;;;3.33;;
11709;SDS011;5911;51.036;6.972;2023-05-07T00:54:12;5.80;;;3.35;;
11709;SDS011;5911;51.036;6.972;2023-05-07T00:56:40;4.57;;;3.10;;
11709;SDS011;5911;51.036;6.972;2023-05-07T00:59:08;6.80;;;3.38;;
11709;SDS011;5911;51.036;6.972;2023-05-07T01:01:37;5.32;;;3.72;;
11709;SDS011;5911;51.036;6.972;2023-05-07T01:04:05;5.05;;;3.28;;
11709;SDS011;5911;51.036;6.972;2023-05-07T01:06:33;5.70;;;2.97;;
11709;SDS011;5911;51.036;6.972;2023-05-07T01:09:03;3.15;;;2.78;;
11709;SDS011;5911;51.036;6.972;2023-05-07T01:11:32;3.28;;;2.75;;
11709;SDS011;5911;51.036;6.972;2023-05-07T01:14:00;4.35;;;2.75;;
11709;SDS011;5911;51.036;6.972;2023-05-07T01:16:29;3.97;;;2.88;;
11709;SDS011;5911;51.036;6.972;2023-05-07T01:18:58;8.65;;;4.15;;
11709;SDS011;5911;51.036;6.972;2023-05-07T01:21:27;6.30;;;2.80;;
11709;SDS011;5911;51.036;6.972;2023-05-07T01:24:03;4.32;;;2.85;;
11709;SDS011;5911;51.036;6.972;2023-05-07T01:26:32;4.13;;;2.78;;
11709;SDS011;5911;51.036;6.972;2023-05-07T01:29:00;4.97;;;2.78;;
11709;SDS011;5911;51.036;6.972;2023-05-07T01:31:28;8.00;;;2.92;;
11709;SDS011;5911;51.036;6.972;2023-05-07T01:33:56;8.00;;;2.75;;
11709;SDS011;5911;51.036;6.972;2023-05-07T01:36:26;5.85;;;2.67;;
11709;SDS011;5911;51.036;6.972;2023-05-07T01:38:56;7.30;;;2.40;;
11709;SDS011;5911;51.036;6.972;2023-05-07T01:41:27;5.75;;;2.83;;
11709;SDS011;5911;51.036;6.972;2023-05-07T01:43:55;7.80;;;3.13;;
11709;SDS011;5911;51.036;6.972;2023-05-07T01:46:26;3.10;;;2.80;;
11709;SDS011;5911;51.036;6.972;2023-05-07T01:48:54;10.85;;;2.90;;
11709;SDS011;5911;51.036;6.972;2023-05-07T01:51:22;6.88;;;3.22;;
11709;SDS011;5911;51.036;6.972;2023-05-07T01:53:50;5.85;;;3.13;;
11709;SDS011;5911;51.036;6.972;2023-05-07T01:56:19;4.75;;;2.88;;
11709;SDS011;5911;51.036;6.972;2023-05-07T01:58:49;3.90;;;2.65;;
11709;SDS011;5911;51.036;6.972;2023-05-07T02:01:18;3.20;;;2.90;;
11709;SDS011;5911;51.036;6.972;2023-05-07T02:03:47;5.10;;;3.08;;
11709;SDS011;5911;51.036;6.972;2023-05-07T02:06:21;4.07;;;2.90;;
11709;SDS011;5911;51.036;6.972;2023-05-07T02:08:53;5.18;;;3.22;;
11709;SDS011;5911;51.036;6.972;2023-05-07T02:11:21;3.50;;;2.83;;
11709;SDS011;5911;51.036;6.972;2023-05-07T02:13:51;5.43;;;3.05;;
11709;SDS011;5911;51.036;6.972;2023-05-07T02:16:19;3.65;;;2.50;;
11709;SDS011;5911;51.036;6.972;2023-05-07T02:18:48;6.60;;;2.90;;
11709;SDS011;5911;51.036;6.972;2023-05-07T02:21:16;8.23;;;2.88;;
11709;SDS011;5911;51.036;6.972;2023-05-07T02:23:44;5.50;;;2.38;;
11709;SDS011;5911;51.036;6.972;2023-05-07T02:26:12;8.52;;;2.90;;
11709;SDS011;5911;51.036;6.972;2023-05-07T02:28:39;6.70;;;2.63;;
11709;SDS011;5911;51.036;6.972;2023-05-07T02:31:08;6.70;;;2.70;;
11709;SDS011;5911;51.036;6.972;2023-05-07T02:33:37;4.78;;;2.60;;
11709;SDS011;5911;51.036;6.972;2023-05-07T02:36:07;7.55;;;3.03;;
11709;SDS011;5911;51.036;6.972;2023-05-07T02:38:51;5.85;;;2.58;;
11709;SDS011;5911;51.036;6.972;2023-05-07T02:41:19;4.25;;;2.65;;
11709;SDS011;5911;51.036;6.972;2023-05-07T02:43:47;6.35;;;2.67;;
11709;SDS011;5911;51.036;6.972;2023-05-07T02:46:17;7.82;;;2.80;;
11709;SDS011;5911;51.036;6.972;2023-05-07T02:48:50;7.03;;;2.38;;
11709;SDS011;5911;51.036;6.972;2023-05-07T02:51:19;7.07;;;2.60;;
11709;SDS011;5911;51.036;6.972;2023-05-07T02:53:52;5.53;;;2.65;;
11709;SDS011;5911;51.036;6.972;2023-05-07T02:56:21;3.05;;;2.30;;
11709;SDS011;5911;51.036;6.972;2023-05-07T02:58:49;7.00;;;2.85;;
11709;SDS011;5911;51.036;6.972;2023-05-07T03:01:20;7.90;;;2.55;;
11709;SDS011;5911;51.036;6.972;2023-05-07T03:03:54;4.13;;;2.35;;
11709;SDS011;5911;51.036;6.972;2023-05-07T03:06:23;7.90;;;2.65;;
11709;SDS011;5911;51.036;6.972;2023-05-07T03:08:51;4.38;;;2.45;;
11709;SDS011;5911;51.036;6.972;2023-05-07T03:11:18;3.07;;;2.80;;
11709;SDS011;5911;51.036;6.972;2023-05-07T03:13:47;3.15;;;2.30;;
11709;SDS011;5911;51.036;6.972;2023-05-07T03:16:17;5.93;;;2.55;;
11709;SDS011;5911;51.036;6.972;2023-05-07T03:18:46;3.55;;;2.72;;
11709;SDS011;5911;51.036;6.972;2023-05-07T03:21:14;5.40;;;2.30;;
11709;SDS011;5911;51.036;6.972;2023-05-07T03:23:42;6.00;;;2.58;;
11709;SDS011;5911;51.036;6.972;2023-05-07T03:26:10;6.00;;;2.28;;
11709;SDS011;5911;51.036;6.972;2023-05-07T03:28:38;3.70;;;2.22;;
11709;SDS011;5911;51.036;6.972;2023-05-07T03:31:10;7.00;;;2.70;;
11709;SDS011;5911;51.036;6.972;2023-05-07T03:33:39;5.47;;;2.77;;
11709;SDS011;5911;51.036;6.972;2023-05-07T03:36:19;11.40;;;2.95;;
11709;SDS011;5911;51.036;6.972;2023-05-07T03:38:47;2.70;;;2.28;;
11709;SDS011;5911;51.036;6.972;2023-05-07T03:41:19;3.47;;;2.33;;
11709;SDS011;5911;51.036;6.972;2023-05-07T03:43:47;4.23;;;2.60;;
11709;SDS011;5911;51.036;6.972;2023-05-07T03:46:16;10.38;;;2.67;;
11709;SDS011;5911;51.036;6.972;2023-05-07T03:48:44;4.65;;;2.72;;
11709;SDS011;5911;51.036;6.972;2023-05-07T03:51:14;8.27;;;2.83;;
11709;SDS011;5911;51.036;6.972;2023-05-07T03:53:42;4.50;;;2.50;;
11709;SDS011;5911;51.036;6.972;2023-05-07T03:56:10;5.80;;;2.50;;
11709;SDS011;5911;51.036;6.972;2023-05-07T03:58:40;7.00;;;2.45;;
11709;SDS011;5911;51.036;6.972;2023-05-07T04:01:09;3.03;;;2.58;;
11709;SDS011;5911;51.036;6.972;2023-05-07T04:03:38;4.43;;;2.30;;
11709;SDS011;5911;51.036;6.972;2023-05-07T04:06:07;4.90;;;2.80;;
11709;SDS011;5911;51.036;6.972;2023-05-07T04:08:37;4.72;;;2.50;;
11709;SDS011;5911;51.036;6.972;2023-05-07T04:11:05;6.73;;;2.73;;
11709;SDS011;5911;51.036;6.972;2023-05-07T04:13:35;6.40;;;2.55;;
11709;SDS011;5911;51.036;6.972;2023-05-07T04:16:05;6.93;;;2.90;;
11709;SDS011;5911;51.036;6.972;2023-05-07T04:18:35;4.33;;;2.67;;
11709;SDS011;5911;51.036;6.972;2023-05-07T04:21:04;4.43;;;2.60;;
11709;SDS011;5911;51.036;6.972;2023-05-07T04:23:34;5.18;;;2.60;;
11709;SDS011;5911;51.036;6.972;2023-05-07T04:26:08;18.02;;;3.05;;
11709;SDS011;5911;51.036;6.972;2023-05-07T04:28:39;4.40;;;2.72;;
11709;SDS011;5911;51.036;6.972;2023-05-07T04:31:08;9.70;;;2.60;;
11709;SDS011;5911;51.036;6.972;2023-05-07T04:33:37;3.37;;;2.30;;
11709;SDS011;5911;51.036;6.972;2023-05-07T04:36:07;8.37;;;2.90;;
11709;SDS011;5911;51.036;6.972;2023-05-07T04:38:42;6.07;;;2.63;;
11709;SDS011;5911;51.036;6.972;2023-05-07T04:41:12;4.30;;;2.65;;
11709;SDS011;5911;51.036;6.972;2023-05-07T04:43:42;10.50;;;3.22;;
11709;SDS011;5911;51.036;6.972;2023-05-07T04:46:13;4.05;;;2.97;;
11709;SDS011;5911;51.036;6.972;2023-05-07T04:48:42;3.13;;;2.70;;
11709;SDS011;5911;51.036;6.972;2023-05-07T04:51:10;4.22;;;2.75;;
11709;SDS011;5911;51.036;6.972;2023-05-07T04:53:38;6.90;;;2.47;;
11709;SDS011;5911;51.036;6.972;2023-05-07T04:56:07;2.78;;;2.50;;
11709;SDS011;5911;51.036;6.972;2023-05-07T04:58:43;5.20;;;2.22;;
11709;SDS011;5911;51.036;6.972;2023-05-07T05:02:00;3.47;;;2.55;;
11709;SDS011;5911;51.036;6.972;2023-05-07T05:04:31;4.35;;;2.92;;
11709;SDS011;5911;51.036;6.972;2023-05-07T05:06:59;3.40;;;2.42;;
11709;SDS011;5911;51.036;6.972;2023-05-07T05:09:30;8.95;;;3.00;;
11709;SDS011;5911;51.036;6.972;2023-05-07T05:12:01;5.78;;;2.60;;
11709;SDS011;5911;51.036;6.972;2023-05-07T05:14:31;3.92;;;2.60;;
11709;SDS011;5911;51.036;6.972;2023-05-07T05:16:59;4.20;;;2.88;;
11709;SDS011;5911;51.036;6.972;2023-05-07T05:19:27;4.22;;;2.90;;
11709;SDS011;5911;51.036;6.972;2023-05-07T05:21:55;4.37;;;2.60;;
11709;SDS011;5911;51.036;6.972;2023-05-07T05:24:23;5.75;;;2.72;;
11709;SDS011;5911;51.036;6.972;2023-05-07T05:26:52;5.78;;;2.90;;
11709;SDS011;5911;51.036;6.972;2023-05-07T05:29:20;4.50;;;2.45;;
11709;SDS011;5911;51.036;6.972;2023-05-07T05:31:50;3.22;;;2.40;;
11709;SDS011;5911;51.036;6.972;2023-05-07T05:34:18;2.53;;;2.33;;
11709;SDS011;5911;51.036;6.972;2023-05-07T05:36:48;4.80;;;2.85;;
11709;SDS011;5911;51.036;6.972;2023-05-07T05:39:16;3.50;;;2.50;;
11709;SDS011;5911;51.036;6.972;2023-05-07T05:41:44;4.25;;;2.35;;
11709;SDS011;5911;51.036;6.972;2023-05-07T05:44:13;5.70;;;2.40;;
11709;SDS011;5911;51.036;6.972;2023-05-07T05:46:46;4.72;;;2.60;;
11709;SDS011;5911;51.036;6.972;2023-05-07T05:49:22;3.42;;;2.50;;
11709;SDS011;5911;51.036;6.972;2023-05-07T05:51:50;3.50;;;2.40;;
11709;SDS011;5911;51.036;6.972;2023-05-07T05:54:20;3.50;;;2.60;;
11709;SDS011;5911;51.036;6.972;2023-05-07T05:56:48;11.13;;;2.80;;
11709;SDS011;5911;51.036;6.972;2023-05-07T05:59:16;3.13;;;2.63;;
11709;SDS011;5911;51.036;6.972;2023-05-07T06:01:44;4.40;;;2.80;;
11709;SDS011;5911;51.036;6.972;2023-05-07T06:04:12;4.45;;;2.95;;
11709;SDS011;5911;51.036;6.972;2023-05-07T06:06:43;3.45;;;2.58;;
11709;SDS011;5911;51.036;6.972;2023-05-07T06:09:11;6.63;;;3.05;;
11709;SDS011;5911;51.036;6.972;2023-05-07T06:11:43;4.18;;;2.58;;
11709;SDS011;5911;51.036;6.972;2023-05-07T06:14:19;5.55;;;2.70;;
11709;SDS011;5911;51.036;6.972;2023-05-07T06:16:53;3.35;;;2.45;;
11709;SDS011;5911;51.036;6.972;2023-05-07T06:19:21;4.47;;;3.00;;
11709;SDS011;5911;51.036;6.972;2023-05-07T06:21:54;3.63;;;2.55;;
11709;SDS011;5911;51.036;6.972;2023-05-07T06:24:23;3.03;;;2.77;;
11709;SDS011;5911;51.036;6.972;2023-05-07T06:26:52;3.22;;;2.67;;
11709;SDS011;5911;51.036;6.972;2023-05-07T06:29:20;3.75;;;2.88;;
11709;SDS011;5911;51.036;6.972;2023-05-07T06:31:48;3.75;;;2.95;;
11709;SDS011;5911;51.036;6.972;2023-05-07T06:34:21;4.10;;;3.38;;
11709;SDS011;5911;51.036;6.972;2023-05-07T06:36:53;4.70;;;2.80;;
11709;SDS011;5911;51.036;6.972;2023-05-07T06:39:51;6.22;;;3.17;;
11709;SDS011;5911;51.036;6.972;2023-05-07T06:42:21;5.88;;;3.33;;
11709;SDS011;5911;51.036;6.972;2023-05-07T06:44:51;5.90;;;3.30;;
11709;SDS011;5911;51.036;6.972;2023-05-07T06:47:22;3.30;;;3.00;;
11709;SDS011;5911;51.036;6.972;2023-05-07T06:49:54;3.58;;;3.17;;
11709;SDS011;5911;51.036;6.972;2023-05-07T06:52:29;2.78;;;2.58;;
11709;SDS011;5911;51.036;6.972;2023-05-07T06:54:56;3.25;;;2.95;;
11709;SDS011;5911;51.036;6.972;2023-05-07T06:57:25;3.22;;;2.80;;
11709;SDS011;5911;51.036;6.972;2023-05-07T06:59:53;6.60;;;3.42;;
11709;SDS011;5911;51.036;6.972;2023-05-07T07:02:21;4.45;;;3.22;;
11709;SDS011;5911;51.036;6.972;2023-05-07T07:04:50;3.30;;;3.00;;
11709;SDS011;5911;51.036;6.972;2023-05-07T07:07:18;3.58;;;2.60;;
11709;SDS011;5911;51.036;6.972;2023-05-07T07:09:56;5.15;;;2.60;;
11709;SDS011;5911;51.036;6.972;2023-05-07T07:12:25;3.30;;;2.95;;
11709;SDS011;5911;51.036;6.972;2023-05-07T07:14:53;3.20;;;2.80;;
11709;SDS011;5911;51.036;6.972;2023-05-07T07:17:21;7.05;;;2.80;;
11709;SDS011;5911;51.036;6.972;2023-05-07T07:19:49;4.22;;;2.47;;
11709;SDS011;5911;51.036;6.972;2023-05-07T07:22:17;2.47;;;2.28;;
11709;SDS011;5911;51.036;6.972;2023-05-07T07:24:46;2.95;;;2.42;;
11709;SDS011;5911;51.036;6.972;2023-05-07T07:27:17;3.00;;;2.35;;
11709;SDS011;5911;51.036;6.972;2023-05-07T07:29:45;5.10;;;2.80;;
11709;SDS011;5911;51.036;6.972;2023-05-07T07:32:15;3.65;;;2.80;;
11709;SDS011;5911;51.036;6.972;2023-05-07T07:34:44;4.20;;;3.33;;
11709;SDS011;5911;51.036;6.972;2023-05-07T07:37:12;4.47;;;3.00;;
11709;SDS011;5911;51.036;6.972;2023-05-07T07:39:40;5.13;;;2.95;;
11709;SDS011;5911;51.036;6.972;2023-05-07T07:42:11;3.67;;;2.95;;
11709;SDS011;5911;51.036;6.972;2023-05-07T07:44:40;3.63;;;3.00;;
11709;SDS011;5911;51.036;6.972;2023-05-07T07:47:10;4.40;;;3.20;;
11709;SDS011;5911;51.036;6.972;2023-05-07T07:49:40;3.25;;;2.97;;
11709;SDS011;5911;51.036;6.972;2023-05-07T07:52:09;3.67;;;2.67;;
11709;SDS011;5911;51.036;6.972;2023-05-07T07:54:38;4.07;;;3.03;;
11709;SDS011;5911;51.036;6.972;2023-05-07T07:57:06;4.18;;;2.78;;
11709;SDS011;5911;51.036;6.972;2023-05-07T07:59:34;3.45;;;2.30;;
11709;SDS011;5911;51.036;6.972;2023-05-07T08:02:04;3.63;;;2.72;;
11709;SDS011;5911;51.036;6.972;2023-05-07T08:04:32;4.03;;;3.03;;
11709;SDS011;5911;51.036;6.972;2023-05-07T08:07:03;4.22;;;2.63;;
11709;SDS011;5911;51.036;6.972;2023-05-07T08:09:34;2.63;;;2.42;;
11709;SDS011;5911;51.036;6.972;2023-05-07T08:12:03;3.63;;;2.58;;
11709;SDS011;5911;51.036;6.972;2023-05-07T08:14:33;3.63;;;2.55;;
11709;SDS011;5911;51.036;6.972;2023-05-07T08:17:05;3.60;;;2.60;;
11709;SDS011;5911;51.036;6.972;2023-05-07T08:19:34;3.17;;;2.53;;
11709;SDS011;5911;51.036;6.972;2023-05-07T08:22:04;5.40;;;2.70;;
11709;SDS011;5911;51.036;6.972;2023-05-07T08:24:33;4.47;;;3.22;;
11709;SDS011;5911;51.036;6.972;2023-05-07T08:27:01;5.97;;;2.97;;
11709;SDS011;5911;51.036;6.972;2023-05-07T08:29:30;3.80;;;2.85;;
11709;SDS011;5911;51.036;6.972;2023-05-07T08:31:59;3.47;;;3.00;;
11709;SDS011;5911;51.036;6.972;2023-05-07T08:34:28;3.90;;;3.08;;
11709;SDS011;5911;51.036;6.972;2023-05-07T08:36:58;4.00;;;2.95;;
11709;SDS011;5911;51.036;6.972;2023-05-07T08:39:27;3.58;;;2.78;;
11709;SDS011;5911;51.036;6.972;2023-05-07T08:41:55;8.48;;;4.00;;
11709;SDS011;5911;51.036;6.972;2023-05-07T08:44:26;7.38;;;3.85;;
11709;SDS011;5911;51.036;6.972;2023-05-07T08:46:56;4.32;;;2.45;;
11709;SDS011;5911;51.036;6.972;2023-05-07T08:49:24;4.35;;;2.35;;
11709;SDS011;5911;51.036;6.972;2023-05-07T08:51:54;3.10;;;2.40;;
11709;SDS011;5911;51.036;6.972;2023-05-07T08:54:23;2.50;;;2.30;;
11709;SDS011;5911;51.036;6.972;2023-05-07T08:56:53;3.38;;;2.00;;
11709;SDS011;5911;51.036;6.972;2023-05-07T08:59:22;3.20;;;2.05;;
11709;SDS011;5911;51.036;6.972;2023-05-07T09:01:51;2.40;;;2.20;;
11709;SDS011;5911;51.036;6.972;2023-05-07T09:04:19;2.42;;;2.00;;
11709;SDS011;5911;51.036;6.972;2023-05-07T09:06:47;3.08;;;2.22;;
11709;SDS011;5911;51.036;6.972;2023-05-07T09:09:19;2.40;;;2.20;;
11709;SDS011;5911;51.036;6.972;2023-05-07T09:11:56;8.80;;;2.97;;
11709;SDS011;5911;51.036;6.972;2023-05-07T09:14:26;3.38;;;2.55;;
11709;SDS011;5911;51.036;6.972;2023-05-07T09:16:54;3.03;;;2.10;;
11709;SDS011;5911;51.036;6.972;2023-05-07T09:19:23;3.90;;;2.38;;
11709;SDS011;5911;51.036;6.972;2023-05-07T09:21:59;3.25;;;2.10;;
11709;SDS011;5911;51.036;6.972;2023-05-07T09:24:35;3.30;;;2.17;;
11709;SDS011;5911;51.036;6.972;2023-05-07T09:27:07;2.72;;;2.03;;
11709;SDS011;5911;51.036;6.972;2023-05-07T09:29:43;6.60;;;2.70;;
11709;SDS011;5911;51.036;6.972;2023-05-07T09:32:13;3.55;;;2.25;;
11709;SDS011;5911;51.036;6.972;2023-05-07T09:34:42;3.08;;;1.63;;
11709;SDS011;5911;51.036;6.972;2023-05-07T09:37:12;5.05;;;2.25;;
11709;SDS011;5911;51.036;6.972;2023-05-07T09:39:42;2.47;;;2.13;;
11709;SDS011;5911;51.036;6.972;2023-05-07T09:42:15;4.28;;;2.30;;
11709;SDS011;5911;51.036;6.972;2023-05-07T09:44:44;3.28;;;2.60;;
11709;SDS011;5911;51.036;6.972;2023-05-07T09:47:17;3.20;;;2.00;;
11709;SDS011;5911;51.036;6.972;2023-05-07T09:49:50;2.20;;;1.80;;
11709;SDS011;5911;51.036;6.972;2023-05-07T09:52:23;4.88;;;1.73;;
11709;SDS011;5911;51.036;6.972;2023-05-07T09:54:56;3.78;;;2.40;;
11709;SDS011;5911;51.036;6.972;2023-05-07T09:57:29;4.05;;;2.33;;
11709;SDS011;5911;51.036;6.972;2023-05-07T10:00:05;2.53;;;2.20;;
11709;SDS011;5911;51.036;6.972;2023-05-07T10:02:46;1.83;;;1.73;;
11709;SDS011;5911;51.036;6.972;2023-05-07T10:05:24;3.10;;;1.95;;
11709;SDS011;5911;51.036;6.972;2023-05-07T10:07:56;4.93;;;2.42;;
11709;SDS011;5911;51.036;6.972;2023-05-07T10:10:25;5.22;;;2.38;;
11709;SDS011;5911;51.036;6.972;2023-05-07T10:12:55;2.88;;;2.10;;
11709;SDS011;5911;51.036;6.972;2023-05-07T10:15:30;1.70;;;1.60;;
11709;SDS011;5911;51.036;6.972;2023-05-07T10:18:02;5.15;;;2.67;;
11709;SDS011;5911;51.036;6.972;2023-05-07T10:20:34;3.65;;;2.10;;
11709;SDS011;5911;51.036;6.972;2023-05-07T10:23:06;4.35;;;2.10;;
11709;SDS011;5911;51.036;6.972;2023-05-07T10:25:45;2.13;;;1.80;;
11709;SDS011;5911;51.036;6.972;2023-05-07T10:28:21;3.38;;;1.90;;
11709;SDS011;5911;51.036;6.972;2023-05-07T10:30:55;1.95;;;1.73;;
11709;SDS011;5911;51.036;6.972;2023-05-07T10:33:41;3.17;;;1.90;;
11709;SDS011;5911;51.036;6.972;2023-05-07T10:36:13;2.15;;;1.70;;
11709;SDS011;5911;51.036;6.972;2023-05-07T10:38:41;3.83;;;1.73;;
11709;SDS011;5911;51.036;6.972;2023-05-07T10:41:11;2.75;;;1.80;;
11709;SDS011;5911;51.036;6.972;2023-05-07T10:43:42;3.13;;;1.80;;
11709;SDS011;5911;51.036;6.972;2023-05-07T10:46:25;1.98;;;1.77;;
11709;SDS011;5911;51.036;6.972;2023-05-07T10:49:22;2.22;;;1.90;;
11709;SDS011;5911;51.036;6.972;2023-05-07T10:52:13;3.63;;;1.90;;
11709;SDS011;5911;51.036;6.972;2023-05-07T10:55:20;3.85;;;2.22;;
11709;SDS011;5911;51.036;6.972;2023-05-07T10:58:23;4.50;;;2.08;;
11709;SDS011;5911;51.036;6.972;2023-05-07T11:04:23;1.88;;;1.60;;
11709;SDS011;5911;51.036;6.972;2023-05-07T11:07:25;2.53;;;1.60;;
11709;SDS011;5911;51.036;6.972;2023-05-07T11:10:05;1.63;;;1.30;;
11709;SDS011;5911;51.036;6.972;2023-05-07T11:12:53;2.60;;;1.50;;
11709;SDS011;5911;51.036;6.972;2023-05-07T11:15:35;2.53;;;1.90;;
11709;SDS011;5911;51.036;6.972;2023-05-07T11:18:13;1.75;;;1.50;;
11709;SDS011;5911;51.036;6.972;2023-05-07T11:20:46;2.05;;;1.48;;
11709;SDS011;5911;51.036;6.972;2023-05-07T11:23:55;2.35;;;1.48;;
11709;SDS011;5911;51.036;6.972;2023-05-07T11:26:47;2.35;;;1.70;;
11709;SDS011;5911;51.036;6.972;2023-05-07T11:29:18;1.83;;;1.63;;
11709;SDS011;5911;51.036;6.972;2023-05-07T11:31:54;4.45;;;1.83;;
11709;SDS011;5911;51.036;6.972;2023-05-07T11:34:27;1.77;;;1.50;;
11709;SDS011;5911;51.036;6.972;2023-05-07T11:36:57;2.45;;;1.67;;
11709;SDS011;5911;51.036;6.972;2023-05-07T11:39:48;3.13;;;1.60;;
11709;SDS011;5911;51.036;6.972;2023-05-07T11:42:27;2.75;;;1.70;;
11709;SDS011;5911;51.036;6.972;2023-05-07T11:44:55;2.95;;;2.10;;
11709;SDS011;5911;51.036;6.972;2023-05-07T11:47:24;2.15;;;1.95;;
11709;SDS011;5911;51.036;6.972;2023-05-07T11:49:53;1.70;;;1.60;;
11709;SDS011;5911;51.036;6.972;2023-05-07T11:52:22;4.07;;;2.88;;
11709;SDS011;5911;51.036;6.972;2023-05-07T11:54:51;4.40;;;2.00;;
11709;SDS011;5911;51.036;6.972;2023-05-07T11:57:21;1.92;;;1.40;;
11709;SDS011;5911;51.036;6.972;2023-05-07T11:59:52;4.30;;;1.75;;
11709;SDS011;5911;51.036;6.972;2023-05-07T12:02:20;1.98;;;1.42;;
11709;SDS011;5911;51.036;6.972;2023-05-07T12:04:49;2.95;;;1.75;;
11709;SDS011;5911;51.036;6.972;2023-05-07T12:07:17;3.42;;;1.42;;
11709;SDS011;5911;51.036;6.972;2023-05-07T12:09:45;1.70;;;1.58;;
11709;SDS011;5911;51.036;6.972;2023-05-07T12:12:14;2.50;;;1.60;;
11709;SDS011;5911;51.036;6.972;2023-05-07T12:14:44;4.22;;;1.80;;
11709;SDS011;5911;51.036;6.972;2023-05-07T12:17:13;2.85;;;1.45;;
11709;SDS011;5911;51.036;6.972;2023-05-07T12:19:43;1.50;;;1.40;;
11709;SDS011;5911;51.036;6.972;2023-05-07T12:22:13;2.22;;;1.50;;
11709;SDS011;5911;51.036;6.972;2023-05-07T12:24:43;1.63;;;1.52;;
11709;SDS011;5911;51.036;6.972;2023-05-07T12:27:12;2.38;;;1.35;;
11709;SDS011;5911;51.036;6.972;2023-05-07T12:29:43;2.45;;;1.60;;
11709;SDS011;5911;51.036;6.972;2023-05-07T12:32:13;1.98;;;1.30;;
11709;SDS011;5911;51.036;6.972;2023-05-07T12:34:41;3.05;;;1.85;;
11709;SDS011;5911;51.036;6.972;2023-05-07T12:37:12;4.78;;;1.70;;
11709;SDS011;5911;51.036;6.972;2023-05-07T12:39:44;4.45;;;1.77;;
11709;SDS011;5911;51.036;6.972;2023-05-07T12:42:14;3.08;;;1.88;;
11709;SDS011;5911;51.036;6.972;2023-05-07T12:44:45;2.25;;;1.50;;
11709;SDS011;5911;51.036;6.972;2023-05-07T12:47:14;2.10;;;1.60;;
11709;SDS011;5911;51.036;6.972;2023-05-07T12:49:42;4.15;;;2.20;;
11709;SDS011;5911;51.036;6.972;2023-05-07T12:52:13;1.60;;;1.50;;
11709;SDS011;5911;51.036;6.972;2023-05-07T12:54:41;2.33;;;1.52;;
11709;SDS011;5911;51.036;6.972;2023-05-07T12:57:11;2.05;;;1.55;;
11709;SDS011;5911;51.036;6.972;2023-05-07T12:59:40;2.22;;;1.35;;
11709;SDS011;5911;51.036;6.972;2023-05-07T13:02:10;2.78;;;1.67;;
11709;SDS011;5911;51.036;6.972;2023-05-07T13:04:39;1.98;;;1.65;;
11709;SDS011;5911;51.036;6.972;2023-05-07T13:07:07;1.90;;;1.80;;
11709;SDS011;5911;51.036;6.972;2023-05-07T13:09:39;2.30;;;1.88;;
11709;SDS011;5911;51.036;6.972;2023-05-07T13:12:08;2.60;;;1.90;;
11709;SDS011;5911;51.036;6.972;2023-05-07T13:14:36;3.05;;;1.70;;
11709;SDS011;5911;51.036;6.972;2023-05-07T13:17:12;4.47;;;1.73;;
11709;SDS011;5911;51.036;6.972;2023-05-07T13:19:49;2.30;;;1.75;;
11709;SDS011;5911;51.036;6.972;2023-05-07T13:22:17;2.28;;;1.77;;
11709;SDS011;5911;51.036;6.972;2023-05-07T13:24:46;3.03;;;1.85;;
11709;SDS011;5911;51.036;6.972;2023-05-07T13:27:14;4.03;;;1.50;;
11709;SDS011;5911;51.036;6.972;2023-05-07T13:29:41;2.35;;;1.70;;
11709;SDS011;5911;51.036;6.972;2023-05-07T13:32:09;4.05;;;1.70;;
11709;SDS011;5911;51.036;6.972;2023-05-07T13:34:37;1.77;;;1.67;;
11709;SDS011;5911;51.036;6.972;2023-05-07T13:37:05;2.30;;;1.80;;
11709;SDS011;5911;51.036;6.972;2023-05-07T13:39:37;5.05;;;1.80;;
11709;SDS011;5911;51.036;6.972;2023-05-07T13:42:06;3.20;;;1.90;;
11709;SDS011;5911;51.036;6.972;2023-05-07T13:44:33;5.10;;;1.70;;
11709;SDS011;5911;51.036;6.972;2023-05-07T13:47:01;2.50;;;1.60;;
11709;SDS011;5911;51.036;6.972;2023-05-07T13:49:29;4.40;;;2.03;;
11709;SDS011;5911;51.036;6.972;2023-05-07T13:51:57;4.07;;;1.73;;
11709;SDS011;5911;51.036;6.972;2023-05-07T13:54:25;2.10;;;1.90;;
11709;SDS011;5911;51.036;6.972;2023-05-07T13:56:52;2.58;;;1.73;;
11709;SDS011;5911;51.036;6.972;2023-05-07T13:59:21;1.52;;;1.42;;
11709;SDS011;5911;51.036;6.972;2023-05-07T14:01:49;3.35;;;1.75;;
11709;SDS011;5911;51.036;6.972;2023-05-07T14:04:17;4.78;;;2.78;;
11709;SDS011;5911;51.036;6.972;2023-05-07T14:06:45;2.72;;;2.00;;
11709;SDS011;5911;51.036;6.972;2023-05-07T14:09:13;2.40;;;2.03;;
11709;SDS011;5911;51.036;6.972;2023-05-07T14:11:40;2.92;;;2.03;;
11709;SDS011;5911;51.036;6.972;2023-05-07T14:14:08;2.30;;;1.85;;
11709;SDS011;5911;51.036;6.972;2023-05-07T14:16:39;2.55;;;1.95;;
11709;SDS011;5911;51.036;6.972;2023-05-07T14:19:07;2.35;;;1.88;;
11709;SDS011;5911;51.036;6.972;2023-05-07T14:21:34;2.50;;;1.90;;
11709;SDS011;5911;51.036;6.972;2023-05-07T14:24:02;1.83;;;1.73;;
11709;SDS011;5911;51.036;6.972;2023-05-07T14:26:30;2.15;;;1.88;;
11709;SDS011;5911;51.036;6.972;2023-05-07T14:28:58;1.83;;;1.73;;
11709;SDS011;5911;51.036;6.972;2023-05-07T14:31:26;1.63;;;1.52;;
11709;SDS011;5911;51.036;6.972;2023-05-07T14:33:55;4.25;;;2.13;;
11709;SDS011;5911;51.036;6.972;2023-05-07T14:36:24;3.40;;;2.40;;
11709;SDS011;5911;51.036;6.972;2023-05-07T14:38:53;3.85;;;2.97;;
11709;SDS011;5911;51.036;6.972;2023-05-07T14:41:25;3.85;;;3.13;;
11709;SDS011;5911;51.036;6.972;2023-05-07T14:43:53;2.65;;;2.42;;
11709;SDS011;5911;51.036;6.972;2023-05-07T14:46:21;4.28;;;2.45;;
11709;SDS011;5911;51.036;6.972;2023-05-07T14:48:50;4.88;;;2.42;;
11709;SDS011;5911;51.036;6.972;2023-05-07T14:51:19;2.05;;;1.95;;
11709;SDS011;5911;51.036;6.972;2023-05-07T14:53:50;3.55;;;2.33;;
11709;SDS011;5911;51.036;6.972;2023-05-07T14:56:18;2.20;;;1.90;;
11709;SDS011;5911;51.036;6.972;2023-05-07T14:58:46;2.33;;;1.85;;
11709;SDS011;5911;51.036;6.972;2023-05-07T15:01:15;4.05;;;1.88;;
11709;SDS011;5911;51.036;6.972;2023-05-07T15:03:43;4.00;;;2.45;;
11709;SDS011;5911;51.036;6.972;2023-05-07T15:06:10;2.33;;;2.13;;
11709;SDS011;5911;51.036;6.972;2023-05-07T15:08:40;2.40;;;2.20;;
11709;SDS011;5911;51.036;6.972;2023-05-07T15:11:07;4.68;;;2.20;;
11709;SDS011;5911;51.036;6.972;2023-05-07T15:13:35;5.22;;;2.33;;
11709;SDS011;5911;51.036;6.972;2023-05-07T15:16:03;3.47;;;3.00;;
11709;SDS011;5911;51.036;6.972;2023-05-07T15:18:31;3.75;;;3.08;;
11709;SDS011;5911;51.036;6.972;2023-05-07T15:20:59;5.03;;;3.28;;
11709;SDS011;5911;51.036;6.972;2023-05-07T15:23:27;5.25;;;3.38;;
11709;SDS011;5911;51.036;6.972;2023-05-07T15:25:56;4.00;;;3.30;;
11709;SDS011;5911;51.036;6.972;2023-05-07T15:28:23;4.00;;;3.22;;